Time;durP1;ratioP1;P1;durP2;ratioP2;P2;SDS_P1;SDS_P2;PMS_P1;PMS_P2;Temp;Humidity;BMP_temperature;BMP_pressure;BME280_temperature;BME280_humidity;BME280_pressure;Samples;Min_cycle;Max_cycle;Signal;HPM_P1;HPM_P2
2024/01/05 00:00:19;;;;;;;14.77;5.38;;;;;;;3.16;100.00;96321.88;5056573;28;20887;-80
2024/01/05 00:02:45;;;;;;;16.88;6.70;;;;;;;3.14;100.00;96316.09;5053574;28;21161;-80
2024/01/05 00:05:11;;;;;;;11.82;5.03;;;;;;;3.14;100.00;96313.47;5035641;28;20454;-80
2024/01/05 00:07:37;;;;;;;10.48;4.80;;;;;;;3.13;100.00;96314.50;5035960;28;20470;-80
2024/01/05 00:10:04;;;;;;;11.88;4.63;;;;;;;3.08;100.00;96313.34;5035951;28;20748;-80
2024/01/05 00:12:31;;;;;;;8.48;4.40;;;;;;;3.08;100.00;96309.97;5035879;28;20391;-81
2024/01/05 00:14:57;;;;;;;11.73;4.60;;;;;;;3.04;100.00;96308.81;5036345;28;20399;-80
2024/01/05 00:17:24;;;;;;;11.20;4.55;;;;;;;3.01;100.00;96298.81;5045487;28;20500;-81
2024/01/05 00:19:50;;;;;;;7.25;4.03;;;;;;;2.99;100.00;96300.88;5055689;28;20435;-80
2024/01/05 00:22:16;;;;;;;8.88;3.80;;;;;;;2.97;100.00;96298.50;5056499;28;20389;-80
2024/01/05 00:24:43;;;;;;;10.15;4.43;;;;;;;2.95;100.00;96295.31;5055864;28;20447;-81
2024/01/05 00:27:09;;;;;;;7.80;4.10;;;;;;;2.94;100.00;96290.31;5056731;28;20778;-81
2024/01/05 00:29:35;;;;;;;10.88;4.30;;;;;;;2.95;100.00;96278.81;5056966;28;20397;-81
2024/01/05 00:32:01;;;;;;;7.88;3.90;;;;;;;2.97;100.00;96277.56;5057343;28;20417;-81
2024/01/05 00:34:28;;;;;;;10.90;4.73;;;;;;;3.01;100.00;96283.13;5056714;28;20401;-81
2024/01/05 00:36:55;;;;;;;8.25;4.43;;;;;;;3.03;100.00;96275.84;5056408;28;20401;-81
2024/01/05 00:39:21;;;;;;;16.52;5.30;;;;;;;3.06;100.00;96278.03;5055410;28;20394;-80
2024/01/05 00:41:47;;;;;;;11.43;4.30;;;;;;;3.09;100.00;96285.38;5058193;28;20497;-80
2024/01/05 00:44:14;;;;;;;10.47;4.50;;;;;;;3.10;100.00;96294.81;5056003;28;20432;-80
2024/01/05 00:46:40;;;;;;;16.98;4.80;;;;;;;3.15;100.00;96294.94;5055428;28;20459;-80
2024/01/05 00:49:06;;;;;;;14.80;4.75;;;;;;;3.25;100.00;96291.72;5055094;28;20401;-81
2024/01/05 00:51:33;;;;;;;6.72;3.97;;;;;;;3.32;100.00;96285.34;5055530;28;20413;-81
2024/01/05 00:53:59;;;;;;;8.55;3.90;;;;;;;3.32;100.00;96279.31;5057085;28;20455;-80
2024/01/05 00:56:25;;;;;;;12.98;4.47;;;;;;;3.29;100.00;96288.44;5060304;28;20467;-80
2024/01/05 00:58:52;;;;;;;11.48;4.13;;;;;;;3.31;100.00;96288.19;5059463;28;20917;-81
2024/01/05 01:01:18;;;;;;;8.07;3.90;;;;;;;3.31;100.00;96293.41;5056757;28;20389;-80
2024/01/05 01:03:44;;;;;;;11.23;3.88;;;;;;;3.36;100.00;96296.13;5055186;28;20397;-81
2024/01/05 01:06:10;;;;;;;12.63;4.63;;;;;;;3.39;100.00;96291.22;5055597;28;20417;-81
2024/01/05 01:08:38;;;;;;;16.70;4.93;;;;;;;3.45;100.00;96300.78;5055201;28;20404;-81
2024/01/05 01:11:04;;;;;;;13.93;4.72;;;;;;;3.53;100.00;96304.06;5055083;28;20492;-80
2024/01/05 01:13:30;;;;;;;10.67;4.07;;;;;;;3.60;100.00;96299.47;5055137;28;20830;-80
2024/01/05 01:15:56;;;;;;;12.68;4.20;;;;;;;3.62;100.00;96303.44;5055326;28;20417;-81
2024/01/05 01:18:22;;;;;;;7.40;3.90;;;;;;;3.65;100.00;96304.81;5055042;28;20488;-81
2024/01/05 01:20:49;;;;;;;10.55;3.75;;;;;;;3.64;100.00;96287.50;5055268;28;20481;-80
2024/01/05 01:23:15;;;;;;;7.45;3.65;;;;;;;3.66;100.00;96282.84;5054843;28;20404;-80
2024/01/05 01:25:43;;;;;;;11.20;4.20;;;;;;;3.67;100.00;96280.00;5054983;28;20797;-80
2024/01/05 01:28:09;;;;;;;10.57;4.10;;;;;;;3.65;100.00;96271.59;5055872;28;20471;-80
2024/01/05 01:30:35;;;;;;;8.65;3.30;;;;;;;3.69;100.00;96277.91;5056479;28;20397;-80
2024/01/05 01:33:01;;;;;;;6.65;3.20;;;;;;;3.70;100.00;96276.91;5064187;28;20896;-79
2024/01/05 01:35:27;;;;;;;12.57;4.05;;;;;;;3.66;100.00;96267.94;5074633;28;20374;-79
2024/01/05 01:37:53;;;;;;;8.35;3.80;;;;;;;3.68;100.00;96259.84;5070026;28;20402;-81
2024/01/05 01:40:20;;;;;;;9.88;4.15;;;;;;;3.70;100.00;96257.78;5056322;28;20448;-81
2024/01/05 01:42:49;;;;;;;5.15;3.00;;;;;;;3.71;100.00;96248.91;5055849;28;20457;-80
2024/01/05 01:45:15;;;;;;;8.65;3.15;;;;;;;3.69;100.00;96238.66;5055963;28;20408;-80
2024/01/05 01:47:42;;;;;;;10.35;3.65;;;;;;;3.69;100.00;96251.75;5057372;28;20417;-80
2024/01/05 01:50:09;;;;;;;10.35;3.38;;;;;;;3.73;100.00;96246.84;5056701;28;20397;-81
2024/01/05 01:52:36;;;;;;;9.60;3.80;;;;;;;3.72;100.00;96230.34;5057022;28;20815;-81
2024/01/05 01:55:02;;;;;;;19.27;4.63;;;;;;;3.67;100.00;96226.88;5057033;28;20406;-80
2024/01/05 01:57:29;;;;;;;11.38;3.80;;;;;;;3.73;100.00;96207.59;5057783;28;20420;-80
2024/01/05 01:59:57;;;;;;;15.60;4.57;;;;;;;3.74;100.00;96211.81;5060218;28;20389;-80
2024/01/05 02:02:24;;;;;;;8.55;3.30;;;;;;;3.77;100.00;96219.16;5060239;28;20456;-80
2024/01/05 02:04:51;;;;;;;8.93;3.60;;;;;;;3.78;100.00;96205.06;5040550;28;20412;-80
2024/01/05 02:07:18;;;;;;;6.07;3.03;;;;;;;3.78;100.00;96213.69;5040568;28;20900;-80
2024/01/05 02:09:44;;;;;;;14.05;4.18;;;;;;;3.74;100.00;96204.75;5040239;28;20407;-80
2024/01/05 02:12:10;;;;;;;9.52;3.22;;;;;;;3.75;100.00;96208.16;5039770;28;20426;-80
2024/01/05 02:14:38;;;;;;;10.93;3.80;;;;;;;3.71;100.00;96202.59;5040231;28;20399;-80
2024/01/05 02:17:31;;;;;;;7.22;3.15;;;;;;;3.71;100.00;96205.22;5039853;28;20454;-81
2024/01/05 02:19:57;;;;;;;14.70;3.85;;;;;;;3.64;100.00;96204.56;5039664;28;20418;-80
2024/01/05 02:22:27;;;;;;;9.55;3.80;;;;;;;3.65;100.00;96198.31;5040184;28;20431;-80
2024/01/05 02:24:55;;;;;;;7.47;3.10;;;;;;;3.65;100.00;96198.31;5039485;28;20387;-81
2024/01/05 02:27:21;;;;;;;4.82;3.10;;;;;;;3.62;100.00;96190.91;5039806;28;20439;-80
2024/01/05 02:29:47;;;;;;;5.10;2.90;;;;;;;3.58;100.00;96187.19;5039696;28;20462;-80
2024/01/05 02:32:14;;;;;;;4.93;2.88;;;;;;;3.54;100.00;96187.88;5039622;28;20434;-80
2024/01/05 02:34:40;;;;;;;3.67;2.60;;;;;;;3.51;100.00;96186.56;5039268;28;20387;-80
2024/01/05 02:37:06;;;;;;;6.68;2.97;;;;;;;3.45;100.00;96183.06;5039427;28;20395;-81
2024/01/05 02:39:32;;;;;;;9.00;3.15;;;;;;;3.40;100.00;96176.94;5039271;28;20441;-80
2024/01/05 02:42:00;;;;;;;7.18;2.97;;;;;;;3.35;100.00;96182.88;5037844;28;20403;-80
2024/01/05 02:44:26;;;;;;;11.23;3.70;;;;;;;3.31;100.00;96186.97;5037547;28;20399;-80
2024/01/05 02:46:52;;;;;;;6.93;3.38;;;;;;;3.28;100.00;96190.06;5037911;28;20895;-80
2024/01/05 02:49:19;;;;;;;4.38;3.05;;;;;;;3.26;100.00;96183.47;5037910;28;20407;-80
2024/01/05 02:51:45;;;;;;;9.07;3.50;;;;;;;3.24;100.00;96186.31;5037516;28;20438;-81
2024/01/05 02:54:11;;;;;;;13.77;4.25;;;;;;;3.20;100.00;96187.03;5038118;28;20628;-81
2024/01/05 02:56:37;;;;;;;11.00;3.40;;;;;;;3.19;100.00;96180.22;5037655;28;20395;-80
2024/01/05 02:59:05;;;;;;;16.50;4.30;;;;;;;3.16;100.00;96172.84;5038274;28;20391;-80
2024/01/05 03:01:31;;;;;;;5.72;3.30;;;;;;;3.18;100.00;96166.34;5038046;28;20489;-80
2024/01/05 03:04:00;;;;;;;4.53;3.05;;;;;;;3.19;100.00;96165.31;5038905;28;20497;-78
2024/01/05 03:06:27;;;;;;;10.20;3.67;;;;;;;3.18;100.00;96163.72;5037378;28;20489;-81
2024/01/05 03:08:53;;;;;;;11.30;3.95;;;;;;;3.22;100.00;96149.19;5037035;28;20442;-80
2024/01/05 03:11:19;;;;;;;14.82;4.18;;;;;;;3.30;100.00;96163.69;5037416;28;20437;-80
2024/01/05 03:13:45;;;;;;;15.90;4.50;;;;;;;3.38;100.00;96158.09;5037641;28;20410;-80
2024/01/05 03:16:13;;;;;;;9.80;3.83;;;;;;;3.50;100.00;96167.44;5037296;28;20899;-79
2024/01/05 03:18:39;;;;;;;6.78;2.90;;;;;;;3.60;100.00;96166.84;5037016;28;20410;-79
2024/01/05 03:21:05;;;;;;;9.95;3.47;;;;;;;3.64;100.00;96161.91;5037414;28;20461;-80
2024/01/05 03:23:31;;;;;;;7.55;3.20;;;;;;;3.71;100.00;96155.50;5038082;28;20926;-80
2024/01/05 03:25:57;;;;;;;4.72;2.60;;;;;;;3.74;100.00;96146.38;5036135;28;20395;-78
2024/01/05 03:28:24;;;;;;;4.13;2.30;;;;;;;3.77;100.00;96148.50;5035506;28;20395;-79
2024/01/05 03:30:50;;;;;;;10.05;3.20;;;;;;;3.79;100.00;96143.84;5035875;28;20422;-80
2024/01/05 03:33:19;;;;;;;6.47;2.53;;;;;;;3.88;100.00;96142.41;5036448;28;20495;-80
2024/01/05 03:35:46;;;;;;;5.72;2.30;;;;;;;3.93;100.00;96136.44;5036342;28;20427;-81
2024/01/05 03:38:12;;;;;;;3.40;2.10;;;;;;;3.93;100.00;96133.81;5036575;28;20399;-80
2024/01/05 03:40:38;;;;;;;9.43;2.80;;;;;;;3.86;100.00;96129.56;5036808;28;20422;-80
2024/01/05 03:43:04;;;;;;;6.80;2.55;;;;;;;3.89;100.00;96123.84;5036154;28;20823;-80
2024/01/05 03:45:30;;;;;;;5.30;2.28;;;;;;;3.87;100.00;96123.28;5036210;28;20407;-80
2024/01/05 03:47:56;;;;;;;4.93;2.20;;;;;;;3.84;100.00;96131.59;5036056;28;20492;-80
2024/01/05 03:50:25;;;;;;;4.47;2.40;;;;;;;3.82;100.00;96131.06;5036934;28;20490;-81
2024/01/05 03:52:51;;;;;;;9.10;2.50;;;;;;;3.83;100.00;96127.41;5038232;28;20395;-80
2024/01/05 03:55:17;;;;;;;5.55;2.20;;;;;;;3.84;100.00;96126.38;5038551;28;20399;-80
2024/01/05 03:57:44;;;;;;;12.77;3.30;;;;;;;3.85;100.00;96135.81;5037775;28;20482;-80
2024/01/05 04:00:11;;;;;;;6.93;2.40;;;;;;;3.91;100.00;96135.91;5037581;28;20399;-80
2024/01/05 04:02:37;;;;;;;8.60;2.50;;;;;;;3.94;100.00;96128.34;5039376;28;20395;-80
2024/01/05 04:05:04;;;;;;;6.63;2.40;;;;;;;3.97;100.00;96122.66;5057610;28;20409;-80
2024/01/05 04:07:31;;;;;;;11.50;3.17;;;;;;;3.92;100.00;96117.31;5057444;28;20453;-81
2024/01/05 04:09:57;;;;;;;7.30;2.67;;;;;;;4.00;100.00;96114.31;5058191;28;20440;-80
2024/01/05 04:12:23;;;;;;;8.10;2.80;;;;;;;4.11;100.00;96115.25;5056999;28;20398;-80
2024/01/05 04:14:49;;;;;;;5.72;2.20;;;;;;;4.18;100.00;96118.50;5057080;28;20901;-80
2024/01/05 04:17:16;;;;;;;4.75;2.28;;;;;;;4.22;100.00;96109.09;5057272;28;20401;-80
2024/01/05 04:19:42;;;;;;;4.88;2.45;;;;;;;4.26;100.00;96107.59;5056862;28;20841;-80
2024/01/05 04:22:08;;;;;;;7.18;2.50;;;;;;;4.26;100.00;96113.63;5056521;28;20480;-80
2024/01/05 04:24:36;;;;;;;5.72;2.38;;;;;;;4.31;100.00;96117.34;5057594;28;20421;-80
2024/01/05 04:27:02;;;;;;;10.13;2.53;;;;;;;4.32;100.00;96103.22;5056652;28;20416;-80
2024/01/05 04:29:28;;;;;;;8.27;2.53;;;;;;;4.32;100.00;96098.78;5057419;28;20394;-81
2024/01/05 04:31:54;;;;;;;13.00;3.05;;;;;;;4.25;100.00;96091.09;5057191;28;20417;-80
2024/01/05 04:34:21;;;;;;;14.00;2.83;;;;;;;4.39;100.00;96085.47;5057528;28;20394;-80
2024/01/05 04:36:47;;;;;;;3.60;2.10;;;;;;;4.44;100.00;96086.34;5043635;28;20410;-80
2024/01/05 04:39:13;;;;;;;5.88;2.22;;;;;;;4.43;100.00;96091.84;5037409;28;20395;-80
2024/01/05 04:41:41;;;;;;;2.87;2.00;;;;;;;4.38;100.00;96110.88;5036968;28;20472;-80
2024/01/05 04:44:07;;;;;;;10.02;2.60;;;;;;;4.29;100.00;96097.41;5039210;28;20396;-80
2024/01/05 04:46:33;;;;;;;4.72;1.95;;;;;;;4.32;100.00;96096.16;5037318;28;20506;-81
2024/01/05 04:48:59;;;;;;;5.88;2.00;;;;;;;4.29;100.00;96092.19;5038357;28;20434;-80
2024/01/05 04:51:26;;;;;;;7.32;2.10;;;;;;;4.27;100.00;96088.22;5044752;28;20402;-79
2024/01/05 04:53:52;;;;;;;5.20;2.47;;;;;;;4.28;100.00;96089.81;5053805;28;20407;-80
2024/01/05 04:56:18;;;;;;;6.07;1.90;;;;;;;4.28;100.00;96095.81;5048932;28;20395;-80
2024/01/05 04:58:45;;;;;;;4.80;1.80;;;;;;;4.27;100.00;96088.22;5037672;28;20430;-81
2024/01/05 05:01:12;;;;;;;10.50;2.53;;;;;;;4.16;100.00;96087.31;5037098;28;20414;-80
2024/01/05 05:03:38;;;;;;;4.32;2.08;;;;;;;4.16;100.00;96089.91;5036536;28;20476;-80
2024/01/05 05:06:05;;;;;;;5.88;1.92;;;;;;;4.14;100.00;96091.97;5036681;28;20899;-80
2024/01/05 05:08:31;;;;;;;4.63;1.70;;;;;;;4.11;100.00;96087.25;5036435;28;20550;-80
2024/01/05 05:10:57;;;;;;;6.32;1.92;;;;;;;4.04;100.00;96084.00;5036199;28;20427;-80
2024/01/05 05:13:23;;;;;;;4.45;1.83;;;;;;;4.00;100.00;96088.13;5035913;28;20391;-80
2024/01/05 05:15:51;;;;;;;3.15;1.60;;;;;;;3.95;100.00;96087.28;5036803;28;20406;-80
2024/01/05 05:18:17;;;;;;;3.13;1.80;;;;;;;3.91;100.00;96089.56;5036848;28;20426;-80
2024/01/05 05:20:43;;;;;;;5.53;2.05;;;;;;;3.85;100.00;96086.09;5041161;28;20449;-80
2024/01/05 05:23:10;;;;;;;4.38;2.00;;;;;;;3.80;100.00;96085.22;5042085;28;20387;-80
2024/01/05 05:25:36;;;;;;;4.60;1.90;;;;;;;3.78;100.00;96082.84;5041525;28;20414;-80
2024/01/05 05:28:02;;;;;;;9.38;2.45;;;;;;;3.79;100.00;96081.81;5040239;28;20509;-80
2024/01/05 05:30:28;;;;;;;3.20;1.90;;;;;;;3.82;100.00;96070.09;5040199;28;20411;-80
2024/01/05 05:32:56;;;;;;;4.15;2.00;;;;;;;3.81;100.00;96069.28;5047772;28;20423;-80
2024/01/05 05:35:22;;;;;;;5.18;2.47;;;;;;;3.84;100.00;96066.19;5046541;28;20415;-81
2024/01/05 05:37:48;;;;;;;6.20;2.30;;;;;;;3.89;100.00;96079.34;5041104;28;20399;-79
2024/01/05 05:40:14;;;;;;;6.78;2.50;;;;;;;3.96;100.00;96078.38;5041468;28;20399;-81
2024/01/05 05:42:40;;;;;;;7.60;2.33;;;;;;;3.98;100.00;96071.09;5041151;28;20402;-80
2024/01/05 05:45:07;;;;;;;3.53;2.00;;;;;;;4.07;100.00;96080.09;5040843;28;20425;-81
2024/01/05 05:47:34;;;;;;;3.40;1.70;;;;;;;4.09;100.00;96078.03;5040874;28;20415;-80
2024/01/05 05:50:05;;;;;;;4.30;1.80;;;;;;;4.08;100.00;96077.25;5040694;28;20965;-80
2024/01/05 05:52:31;;;;;;;5.55;1.92;;;;;;;4.10;100.00;96079.63;5040750;28;20399;-80
2024/01/05 05:54:57;;;;;;;3.22;2.08;;;;;;;4.10;100.00;96077.78;5039949;28;20445;-80
2024/01/05 05:57:23;;;;;;;3.88;1.77;;;;;;;4.08;100.00;96074.63;5039772;28;20398;-80
2024/01/05 05:59:51;;;;;;;5.65;2.03;;;;;;;4.05;100.00;96063.84;5040084;28;20453;-80
2024/01/05 06:02:17;;;;;;;6.20;2.20;;;;;;;3.99;100.00;96070.03;5040414;28;20403;-80
2024/01/05 06:04:43;;;;;;;4.18;1.90;;;;;;;4.01;100.00;96079.25;5042517;28;20437;-80
2024/01/05 06:07:11;;;;;;;2.53;1.90;;;;;;;3.99;100.00;96078.69;5040119;28;20473;-80
2024/01/05 06:09:37;;;;;;;1.63;1.50;;;;;;;3.93;100.00;96079.66;5039946;28;20399;-80
2024/01/05 06:12:04;;;;;;;7.40;2.47;;;;;;;3.83;100.00;96069.81;5041542;28;20452;-80
2024/01/05 06:14:30;;;;;;;9.30;2.70;;;;;;;3.83;100.00;96071.66;5040337;28;20478;-81
2024/01/05 06:16:56;;;;;;;4.18;2.20;;;;;;;3.95;100.00;96063.72;5040157;28;20406;-80
2024/01/05 06:19:22;;;;;;;2.58;1.80;;;;;;;3.98;100.00;96071.09;5040412;28;20759;-81
2024/01/05 06:21:48;;;;;;;3.80;1.90;;;;;;;3.98;100.00;96078.94;5040135;28;20422;-80
2024/01/05 06:24:16;;;;;;;3.43;1.80;;;;;;;3.96;100.00;96084.41;5040108;28;20449;-80
2024/01/05 06:26:42;;;;;;;3.47;1.60;;;;;;;3.95;100.00;96092.50;5039989;28;20422;-81
2024/01/05 06:29:08;;;;;;;4.47;1.75;;;;;;;3.92;100.00;96087.72;5039756;28;20406;-80
2024/01/05 06:31:34;;;;;;;4.43;1.75;;;;;;;3.88;100.00;96092.69;5040012;28;20749;-80
2024/01/05 06:34:00;;;;;;;6.95;2.20;;;;;;;3.83;100.00;96092.63;5039954;28;20803;-81
2024/01/05 06:36:26;;;;;;;5.93;1.90;;;;;;;3.77;100.00;96094.34;5039857;28;20461;-81
2024/01/05 06:38:53;;;;;;;7.43;2.20;;;;;;;3.70;100.00;96088.47;5039623;28;20406;-81
2024/01/05 06:41:20;;;;;;;3.93;2.00;;;;;;;3.64;100.00;96091.25;5045242;28;20439;-81
2024/01/05 06:43:46;;;;;;;3.28;2.10;;;;;;;3.57;100.00;96095.88;5049819;28;20403;-79
2024/01/05 06:46:12;;;;;;;4.43;1.90;;;;;;;3.51;100.00;96089.78;5050116;28;20411;-80
2024/01/05 06:48:38;;;;;;;6.90;2.28;;;;;;;3.46;100.00;96087.84;5039364;28;20453;-81
2024/01/05 06:51:05;;;;;;;7.10;2.28;;;;;;;3.40;100.00;96074.94;5039104;28;20469;-80
2024/01/05 06:53:31;;;;;;;5.45;2.53;;;;;;;3.34;100.00;96079.28;5038571;28;20406;-80
2024/01/05 06:55:57;;;;;;;3.22;2.10;;;;;;;3.30;100.00;96072.16;5038861;28;20674;-80
2024/01/05 06:58:25;;;;;;;3.25;2.30;;;;;;;3.27;100.00;96085.69;5039813;28;20474;-80
2024/01/05 07:00:51;;;;;;;4.10;2.10;;;;;;;3.23;100.00;96095.84;5039550;28;20490;-81
2024/01/05 07:03:17;;;;;;;3.83;2.13;;;;;;;3.19;100.00;96097.34;5038818;28;20394;-80
2024/01/05 07:05:43;;;;;;;5.13;2.35;;;;;;;3.15;100.00;96096.25;5041085;28;20482;-80
2024/01/05 07:08:09;;;;;;;4.00;2.50;;;;;;;3.13;100.00;96106.13;5043120;28;20457;-80
2024/01/05 07:10:35;;;;;;;4.45;2.20;;;;;;;3.08;100.00;96098.97;5043167;28;20402;-80
2024/01/05 07:13:04;;;;;;;5.25;2.40;;;;;;;3.05;100.00;96094.25;5039555;28;20415;-80
2024/01/05 07:15:32;;;;;;;5.28;2.30;;;;;;;3.02;100.00;96099.13;5039192;28;20391;-81
2024/01/05 07:17:58;;;;;;;5.50;2.17;;;;;;;3.00;100.00;96095.97;5039097;28;20403;-80
2024/01/05 07:20:24;;;;;;;6.27;2.40;;;;;;;2.97;100.00;96092.00;5038998;28;20395;-80
2024/01/05 07:22:50;;;;;;;7.53;2.70;;;;;;;2.94;100.00;96084.63;5044062;28;20799;-81
2024/01/05 07:25:16;;;;;;;7.13;2.53;;;;;;;2.94;100.00;96087.22;5050579;28;20394;-80
2024/01/05 07:27:42;;;;;;;3.88;2.40;;;;;;;2.95;100.00;96088.81;5047192;28;20421;-80
2024/01/05 07:30:09;;;;;;;3.35;2.08;;;;;;;2.93;100.00;96082.25;5048585;28;20469;-80
2024/01/05 07:32:37;;;;;;;3.42;2.10;;;;;;;2.92;100.00;96078.84;5048903;28;20397;-81
2024/01/05 07:35:04;;;;;;;6.00;2.35;;;;;;;2.90;100.00;96083.50;5046689;28;20424;-80
2024/01/05 07:37:30;;;;;;;4.97;2.50;;;;;;;2.91;100.00;96092.16;5049815;28;20407;-81
2024/01/05 07:39:57;;;;;;;4.50;2.42;;;;;;;2.93;100.00;96088.25;5048425;28;20482;-82
2024/01/05 07:42:26;;;;;;;3.75;2.30;;;;;;;2.93;100.00;96096.09;5052346;28;20450;-82
2024/01/05 07:44:54;;;;;;;4.70;2.63;;;;;;;2.95;100.00;96093.25;5053451;28;20446;-80
2024/01/05 07:47:20;;;;;;;4.13;2.38;;;;;;;2.95;100.00;96091.44;5058747;28;20425;-81
2024/01/05 07:49:47;;;;;;;3.60;2.40;;;;;;;2.98;100.00;96098.03;5056700;28;20394;-79
2024/01/05 07:52:14;;;;;;;3.33;2.40;;;;;;;2.98;100.00;96095.41;5047370;28;20424;-78
2024/01/05 07:54:40;;;;;;;3.90;2.22;;;;;;;3.00;100.00;96091.53;5045125;28;20401;-78
2024/01/05 07:57:07;;;;;;;3.25;2.40;;;;;;;3.01;100.00;96090.50;5050854;28;20399;-79
2024/01/05 07:59:33;;;;;;;4.50;2.63;;;;;;;3.04;100.00;96094.47;5050613;28;20405;-79
2024/01/05 08:02:00;;;;;;;3.00;2.30;;;;;;;3.06;100.00;96106.28;5054553;28;20676;-78
2024/01/05 08:04:26;;;;;;;6.88;2.58;;;;;;;3.10;100.00;96106.59;5047218;28;20410;-78
2024/01/05 08:06:53;;;;;;;3.33;2.42;;;;;;;3.15;100.00;96108.53;5047816;28;20467;-79
2024/01/05 08:09:20;;;;;;;5.22;2.40;;;;;;;3.19;100.00;96101.78;5049183;28;20406;-78
2024/01/05 08:11:46;;;;;;;3.15;2.20;;;;;;;3.24;100.00;96097.41;5048457;28;20415;-78
2024/01/05 08:14:12;;;;;;;4.68;2.50;;;;;;;3.29;100.00;96094.91;5048018;28;20437;-78
2024/01/05 08:16:38;;;;;;;2.90;2.30;;;;;;;3.35;100.00;96090.56;5038106;28;20483;-79
2024/01/05 08:19:04;;;;;;;4.72;2.55;;;;;;;3.39;100.00;96081.97;5042937;28;20406;-79
2024/01/05 08:21:31;;;;;;;3.77;2.40;;;;;;;3.47;100.00;96083.41;5040941;28;20478;-80
2024/01/05 08:23:58;;;;;;;5.20;2.13;;;;;;;3.54;100.00;96088.47;5041542;28;20396;-79
2024/01/05 08:26:24;;;;;;;4.25;2.33;;;;;;;3.61;100.00;96086.53;5042744;28;20437;-79
2024/01/05 08:28:50;;;;;;;2.20;1.97;;;;;;;3.71;100.00;96092.69;5040239;28;20395;-79
2024/01/05 08:31:17;;;;;;;2.05;1.90;;;;;;;3.79;100.00;96091.50;5039350;28;20394;-78
2024/01/05 08:33:43;;;;;;;3.30;2.25;;;;;;;3.86;100.00;96082.44;5039070;28;20403;-78
2024/01/05 08:36:09;;;;;;;2.65;2.10;;;;;;;3.93;100.00;96082.25;5043398;28;20456;-78
2024/01/05 08:38:35;;;;;;;2.60;2.10;;;;;;;4.01;100.00;96078.44;5042280;28;20421;-80
2024/01/05 08:41:03;;;;;;;2.80;2.00;;;;;;;4.13;100.00;96081.78;5044481;28;20457;-78
2024/01/05 08:43:30;;;;;;;4.00;2.00;;;;;;;4.21;100.00;96076.13;5046663;28;20464;-78
2024/01/05 08:45:56;;;;;;;3.13;2.05;;;;;;;4.27;100.00;96078.56;5039006;28;20498;-78
2024/01/05 08:48:22;;;;;;;3.08;2.10;;;;;;;4.31;100.00;96078.84;5030967;28;20425;-79
2024/01/05 08:50:48;;;;;;;4.95;1.95;;;;;;;4.32;100.00;96083.06;5033426;28;20494;-78
2024/01/05 08:53:14;;;;;;;2.50;1.83;;;;;;;4.32;100.00;96085.66;5032564;28;20406;-77
2024/01/05 08:55:40;;;;;;;2.47;1.98;;;;;;;4.33;100.00;96076.78;5031803;28;20966;-78
2024/01/05 08:58:10;;;;;;;2.35;1.92;;;;;;;4.34;100.00;96075.75;5035902;28;20413;-78
2024/01/05 09:00:36;;;;;;;8.82;2.50;;;;;;;4.28;100.00;96074.09;5042339;28;20459;-79
2024/01/05 09:03:03;;;;;;;6.33;2.20;;;;;;;4.29;100.00;96076.47;5044043;28;20651;-78
2024/01/05 09:05:30;;;;;;;3.33;1.90;;;;;;;4.30;100.00;96079.88;5044253;28;20403;-78
2024/01/05 09:07:56;;;;;;;4.78;2.40;;;;;;;4.24;100.00;96081.66;5041397;28;20421;-79
2024/01/05 09:10:22;;;;;;;3.20;2.17;;;;;;;4.20;100.00;96091.03;5037730;28;20486;-80
2024/01/05 09:12:48;;;;;;;2.22;2.00;;;;;;;4.15;100.00;96096.19;5041409;28;20854;-80
2024/01/05 09:15:17;;;;;;;2.35;2.00;;;;;;;4.10;100.00;96093.50;5040415;28;20465;-78
2024/01/05 09:17:43;;;;;;;4.15;2.00;;;;;;;4.08;100.00;96092.94;5038679;28;20768;-79
2024/01/05 09:20:12;;;;;;;2.78;1.70;;;;;;;4.07;100.00;96080.88;5039735;28;20427;-79
2024/01/05 09:22:38;;;;;;;2.47;1.95;;;;;;;4.07;100.00;96086.13;5038596;28;20473;-79
2024/01/05 09:25:06;;;;;;;7.05;2.40;;;;;;;4.07;100.00;96093.97;5041973;28;20412;-78
2024/01/05 09:27:32;;;;;;;2.85;2.08;;;;;;;4.13;100.00;96098.28;5037284;28;20419;-79
2024/01/05 09:29:58;;;;;;;3.35;2.10;;;;;;;4.19;100.00;96106.97;5036295;28;20415;-78
2024/01/05 09:32:26;;;;;;;2.20;1.90;;;;;;;4.25;100.00;96111.25;5042413;28;20411;-81
2024/01/05 09:34:52;;;;;;;2.70;2.13;;;;;;;4.31;100.00;96112.91;5038913;28;20401;-79
2024/01/05 09:37:18;;;;;;;4.53;1.90;;;;;;;4.37;100.00;96116.38;5041843;28;20408;-79
2024/01/05 09:39:45;;;;;;;2.20;1.90;;;;;;;4.40;100.00;96113.28;5035837;28;20407;-79
2024/01/05 09:42:11;;;;;;;3.72;2.00;;;;;;;4.41;100.00;96120.09;5045469;28;20405;-79
2024/01/05 09:44:37;;;;;;;3.85;2.10;;;;;;;4.44;100.00;96119.59;5041637;28;20411;-79
2024/01/05 09:47:05;;;;;;;3.53;2.00;;;;;;;4.51;100.00;96128.09;5044815;28;20423;-79
2024/01/05 09:49:35;;;;;;;3.45;2.08;;;;;;;4.64;100.00;96112.00;5041013;28;20426;-78
2024/01/05 09:52:02;;;;;;;4.13;1.90;;;;;;;4.80;100.00;96113.78;5047480;28;20464;-78
2024/01/05 09:54:29;;;;;;;2.88;1.70;;;;;;;4.98;100.00;96100.31;5046716;28;20476;-79
2024/01/05 09:56:56;;;;;;;1.85;1.70;;;;;;;5.14;100.00;96101.25;5042391;28;20406;-79
2024/01/05 09:59:24;;;;;;;2.40;1.80;;;;;;;5.26;100.00;96098.50;5046171;28;20399;-79
2024/01/05 10:01:52;;;;;;;3.30;1.75;;;;;;;5.31;100.00;96090.66;5046009;28;20910;-79
2024/01/05 10:04:19;;;;;;;3.50;2.10;;;;;;;5.34;100.00;96098.81;5043311;28;20402;-78
2024/01/05 10:06:56;;;;;;;3.77;1.90;;;;;;;5.37;100.00;96098.34;5041990;28;20423;-79
2024/01/05 10:09:22;;;;;;;1.75;1.60;;;;;;;5.42;100.00;96108.06;5041005;28;20447;-77
2024/01/05 10:11:48;;;;;;;2.30;2.10;;;;;;;5.47;100.00;96097.63;5030751;28;20415;-79
2024/01/05 10:14:15;;;;;;;1.73;1.63;;;;;;;5.52;100.00;96094.25;5032154;28;20787;-79
2024/01/05 10:16:41;;;;;;;3.10;2.10;;;;;;;5.57;100.00;96099.53;5043766;28;20429;-78
2024/01/05 10:19:13;;;;;;;2.88;1.92;;;;;;;5.64;100.00;96108.00;5041335;28;20425;-78
2024/01/05 10:21:40;;;;;;;2.60;1.90;;;;;;;5.69;100.00;96108.03;5040198;28;20457;-78
2024/01/05 10:24:25;;;;;;;6.07;2.35;;;;;;;5.73;100.00;96103.84;5043411;28;20422;-79
2024/01/05 10:27:01;;;;;;;4.55;2.10;;;;;;;5.81;100.00;96106.03;5037025;28;20423;-80
2024/01/05 10:29:28;;;;;;;2.47;1.80;;;;;;;5.87;100.00;96115.50;5047271;28;20414;-81
2024/01/05 10:32:08;;;;;;;2.13;1.60;;;;;;;5.93;100.00;96108.50;5042723;28;20408;-79
2024/01/05 10:34:34;;;;;;;4.60;2.08;;;;;;;5.96;100.00;96100.13;5047239;28;20403;-79
2024/01/05 10:37:04;;;;;;;4.30;2.05;;;;;;;6.04;100.00;96108.31;5047638;28;20979;-78
2024/01/05 10:39:31;;;;;;;2.08;1.70;;;;;;;6.15;100.00;96106.56;5056753;28;20468;-79
2024/01/05 10:42:17;;;;;;;2.33;1.90;;;;;;;6.25;100.00;96106.59;5038290;28;20407;-79
2024/01/05 10:44:47;;;;;;;6.65;2.50;;;;;;;6.29;100.00;96093.75;5043645;28;20395;-78
2024/01/05 10:47:14;;;;;;;5.13;2.22;;;;;;;6.34;100.00;96094.56;5054501;28;20421;-78
2024/01/05 10:49:44;;;;;;;5.20;2.15;;;;;;;6.46;100.00;96095.16;5042294;28;20400;-78
2024/01/05 10:52:11;;;;;;;5.53;2.40;;;;;;;6.51;100.00;96086.50;5058855;28;20405;-79
2024/01/05 10:54:40;;;;;;;4.53;1.90;;;;;;;6.59;100.00;96088.63;5047145;28;20795;-77
2024/01/05 10:57:08;;;;;;;2.38;1.85;;;;;;;6.64;100.00;96078.13;5037781;28;20864;-80
2024/01/05 10:59:35;;;;;;;3.80;2.00;;;;;;;6.70;100.00;96074.47;5053805;28;20408;-79
2024/01/05 11:02:03;;;;;;;7.55;2.80;;;;;;;6.72;100.00;96082.09;5043317;28;20422;-80
2024/01/05 11:04:31;;;;;;;2.35;1.80;;;;;;;6.81;100.00;96072.66;5048604;28;20411;-80
2024/01/05 11:06:59;;;;;;;2.90;1.90;;;;;;;6.86;100.00;96083.19;5045820;28;20419;-81
2024/01/05 11:09:44;;;;;;;3.67;2.10;;;;;;;6.88;100.00;96071.38;5046605;28;20387;-80
2024/01/05 11:12:21;;;;;;;2.42;1.80;;;;;;;6.89;100.00;96072.16;5029448;28;20457;-79
2024/01/05 11:15:07;;;;;;;3.50;2.10;;;;;;;6.87;100.00;96069.78;5039763;28;20391;-78
2024/01/05 11:18:16;;;;;;;3.97;2.17;;;;;;;6.83;100.00;96075.84;5049184;28;20397;-80
2024/01/05 11:21:02;;;;;;;5.45;2.58;;;;;;;6.86;100.00;96067.41;5016712;28;20413;-79
2024/01/05 11:23:30;;;;;;;4.15;2.35;;;;;;;6.78;100.00;96070.53;5049432;28;20389;-79
2024/01/05 11:25:58;;;;;;;15.02;2.78;;;;;;;6.78;100.00;96070.53;5050343;28;20403;-78
2024/01/05 11:28:35;;;;;;;4.20;2.28;;;;;;;6.86;100.00;96067.41;5051211;28;20424;-80
2024/01/05 11:31:01;;;;;;;4.50;2.15;;;;;;;6.90;100.00;96073.75;5057134;28;20392;-80